Impacts TAF Board INFO
FOR SITUATIONAL AWARENESS. NOT TO BE USED FOR FLIGHT PLANNING PURPOSES.
IDs:

KDCA - Washington/National, VA, US

Issued at 2339 UTC 16 Aug 2018
Updated at 0522 UTC 17 Aug 2018
Potential Impact None Slight Moderate High
Time0452Z 17/06Z 17/07Z 17/08Z 17/09Z 17/10Z 17/11Z 17/12Z 17/13Z 17/14Z 17/15Z 17/16Z 17/17Z 17/18Z>>
Type OBS PRVL PRVL PRVL PRVL PRVL PRVL PRVL PRVL PRVL PRVL PRVL PRVL PRVL
VIS 10 >6 >6 >6 >6 >6 >6 >6 >6 >6 >6 >6 >6 >6
CIG -- 250 250 250 250 250 250 250 250 250 250 250 250 250
Cover FEW BKN BKN BKN BKN BKN BKN BKN BKN BKN BKN BKN BKN BKN
FltCat VFR VFR VFR VFR VFR VFR VFR VFR VFR VFR VFR VFR VFR VFR
WX -- -- -- -- -- -- -- -- -- -- -- -- -- --
WDir 180 VRB VRB VRB VRB VRB VRB VRB 180 180 180 180 180 180
WSpd 5 3 3 3 3 3 3 3 8 8 8 8 8 11
WGst -- -- -- -- -- -- -- -- -- -- -- -- -- 17

Raw TAF
KDCA 162339Z 1700/1806 19007KT P6SM FEW050 BKN250
  FM170200 VRB03KT P6SM SCT150 BKN250
  FM171300 18008KT P6SM SCT100 BKN250
  FM171800 18011G17KT P6SM SCT050 BKN250
  FM172200 20010G16KT P6SM VCTS BKN050CB OVC250
  FM180200 24005KT P6SM SCT050 BKN250


Raw METAR
KDCA 170452Z 18005KT 10SM FEW250 27/23 A3011 RMK AO2 SLP197 T02670233 403220267
KDCA 170352Z 18006KT 10SM FEW250 27/23 A3011 RMK AO2 SLP194 T02720233
KDCA 170252Z 19006KT 10SM BKN250 27/23 A3010 RMK AO2 SLP193 T02720233 50008

METAR Board
Radar Display
Forecast Discussion

FOR SITUATIONAL AWARENESS. NOT TO BE USED FOR FLIGHT PLANNING PURPOSES.